Time;durP1;ratioP1;P1;durP2;ratioP2;P2;SDS_P1;SDS_P2;PMS_P1;PMS_P2;Temp;Humidity;BMP_temperature;BMP_pressure;BME280_temperature;BME280_humidity;BME280_pressure;Samples;Min_cycle;Max_cycle;Signal;HPM_P1;HPM_P2
2022/08/08 00:00:45;;;;;;;14.50;8.00;;;;;;;21.06;64.08;94030.38;5123215;28;20031;-73
2022/08/08 00:03:25;;;;;;;9.77;8.15;;;;;;;21.11;64.15;94029.25;5123047;28;20019;-73
2022/08/08 00:06:00;;;;;;;10.52;8.68;;;;;;;21.11;64.04;94034.69;5123406;28;20030;-73
2022/08/08 00:08:50;;;;;;;9.18;7.68;;;;;;;21.13;63.74;94033.16;5123062;28;20028;-73
2022/08/08 00:11:19;;;;;;;9.85;7.55;;;;;;;21.15;63.31;94027.34;5123149;28;20032;-73
2022/08/08 00:14:00;;;;;;;13.70;7.68;;;;;;;21.14;63.53;94033.91;5121859;28;20035;-73
2022/08/08 00:16:31;;;;;;;11.43;7.85;;;;;;;21.14;62.92;94033.91;5123096;28;20062;-72
2022/08/08 00:19:17;;;;;;;11.25;7.82;;;;;;;21.13;62.90;94038.56;5122949;28;20028;-72
2022/08/08 00:21:56;;;;;;;11.95;7.20;;;;;;;21.14;62.59;94039.34;5122984;28;20042;-73
2022/08/08 00:25:01;;;;;;;10.35;7.85;;;;;;;21.16;62.32;94031.59;5123181;28;20024;-72
2022/08/08 00:27:28;;;;;;;11.45;7.70;;;;;;;21.11;62.34;94038.16;5100800;28;20069;-72
2022/08/08 00:30:14;;;;;;;9.93;7.07;;;;;;;21.10;62.32;94044.72;5100975;28;20074;-72
2022/08/08 00:32:45;;;;;;;15.32;9.25;;;;;;;21.10;62.56;94043.94;5114083;28;20043;-72
2022/08/08 00:35:40;;;;;;;11.88;7.22;;;;;;;21.07;62.43;94055.56;5123010;28;20043;-72
2022/08/08 00:38:24;;;;;;;9.35;6.35;;;;;;;21.03;62.58;94040.03;5122905;28;20263;-72
2022/08/08 00:40:52;;;;;;;11.13;6.90;;;;;;;20.99;62.62;94038.44;5122909;28;20090;-72
2022/08/08 00:43:45;;;;;;;12.40;7.70;;;;;;;20.95;62.80;94043.06;5122679;28;20020;-72
2022/08/08 00:46:45;;;;;;;10.85;6.88;;;;;;;20.91;62.90;94043.03;5122601;28;20032;-72
2022/08/08 00:49:47;;;;;;;9.40;7.20;;;;;;;20.80;63.24;94037.53;5122683;28;20031;-72
2022/08/08 00:52:34;;;;;;;12.05;7.28;;;;;;;20.80;63.06;94042.94;5122753;28;20019;-72
2022/08/08 00:55:51;;;;;;;16.10;7.60;;;;;;;20.78;63.31;94041.72;5122695;28;20222;-72
2022/08/08 00:58:54;;;;;;;10.25;6.40;;;;;;;20.80;63.15;94047.56;5122567;28;20318;-72
2022/08/08 01:01:23;;;;;;;10.27;7.32;;;;;;;20.79;63.39;94038.66;5126354;28;20076;-72
2022/08/08 01:04:12;;;;;;;8.85;7.05;;;;;;;20.80;63.31;94037.53;5126086;28;20034;-72
2022/08/08 01:07:14;;;;;;;9.70;6.28;;;;;;;20.83;62.82;94046.81;5126088;28;20027;-72
2022/08/08 01:10:17;;;;;;;10.38;6.63;;;;;;;20.82;62.96;94050.66;5126182;28;20029;-72
2022/08/08 01:12:56;;;;;;;;;;;;;;;20.80;63.20;94042.13;5126555;28;20089;-72
2022/08/08 01:15:27;;;;;;;9.95;6.25;;;;;;;20.78;62.94;94044.44;5126075;28;19903;-72
2022/08/08 01:18:11;;;;;;;10.55;6.53;;;;;;;20.79;63.02;94052.19;5125882;28;20114;-72
2022/08/08 01:21:28;;;;;;;10.68;6.22;;;;;;;20.85;62.30;94047.22;5125886;28;20019;-72
2022/08/08 01:24:15;;;;;;;9.93;6.90;;;;;;;20.79;62.93;94043.31;5116671;28;20032;-72
2022/08/08 01:26:58;;;;;;;13.10;6.93;;;;;;;20.79;62.67;94048.72;5125901;28;20031;-72
2022/08/08 01:30:01;;;;;;;9.30;6.60;;;;;;;20.81;62.94;94049.13;5125835;28;20282;-72
2022/08/08 01:32:47;;;;;;;12.77;7.13;;;;;;;20.76;62.82;94057.59;5125707;28;20103;-72
2022/08/08 01:35:41;;;;;;;11.05;7.78;;;;;;;20.68;63.57;94061.38;5125484;28;20035;-72
2022/08/08 01:38:23;;;;;;;12.95;6.22;;;;;;;20.70;63.74;94064.50;5125584;27;20031;-72
2022/08/08 01:41:24;;;;;;;10.05;7.90;;;;;;;20.70;64.02;94069.91;5125426;28;20038;-72
2022/08/08 01:44:12;;;;;;;10.40;7.63;;;;;;;20.67;64.28;94076.84;5124955;28;20039;-72
2022/08/08 01:46:43;;;;;;;8.95;7.13;;;;;;;20.61;64.38;94079.09;5125506;28;20282;-72
2022/08/08 01:49:47;;;;;;;10.53;8.00;;;;;;;20.61;64.77;94078.34;5125182;28;20260;-72
2022/08/08 01:52:32;;;;;;;16.02;7.03;;;;;;;20.57;64.58;94075.56;5125234;28;20265;-72
2022/08/08 01:55:07;;;;;;;11.55;7.53;;;;;;;20.54;64.81;94068.19;5125409;28;20015;-72
2022/08/08 01:57:35;;;;;;;9.23;7.20;;;;;;;20.57;64.86;94066.66;5123983;28;20077;-72
2022/08/08 02:00:13;;;;;;;8.75;7.03;;;;;;;20.54;64.74;94067.41;5125124;27;20043;-74
2022/08/08 02:03:24;;;;;;;12.95;7.72;;;;;;;20.48;65.04;94071.59;5125051;28;20020;-72
2022/08/08 02:06:09;;;;;;;12.18;7.50;;;;;;;20.45;65.34;94067.69;5125019;28;20230;-72
2022/08/08 02:09:05;;;;;;;14.70;7.90;;;;;;;20.48;65.32;94069.66;5124844;28;20090;-73
2022/08/08 02:11:40;;;;;;;12.43;6.68;;;;;;;20.46;64.94;94060.38;5124158;28;20020;-73
2022/08/08 02:14:30;;;;;;;10.85;7.82;;;;;;;20.36;65.18;94056.41;5123550;28;20024;-73
2022/08/08 02:17:15;;;;;;;10.15;8.02;;;;;;;20.34;65.54;94062.16;5124779;28;20085;-73
2022/08/08 02:20:10;;;;;;;11.63;7.78;;;;;;;20.33;65.50;94057.13;5124861;28;20039;-73
2022/08/08 02:22:54;;;;;;;11.50;7.55;;;;;;;20.30;65.34;94066.75;5124472;28;20008;-73
2022/08/08 02:25:35;;;;;;;15.45;7.00;;;;;;;20.25;65.55;94061.66;5124929;28;20034;-74
2022/08/08 02:28:18;;;;;;;8.85;6.68;;;;;;;20.20;65.25;94065.50;5124749;28;20252;-74
2022/08/08 02:31:23;;;;;;;9.00;6.32;;;;;;;20.21;64.65;94066.25;5124428;28;20034;-75
2022/08/08 02:34:07;;;;;;;9.52;7.28;;;;;;;20.22;65.37;94074.03;5113136;27;20043;-75
2022/08/08 02:36:38;;;;;;;8.57;6.25;;;;;;;20.20;65.50;94070.91;5124570;28;20019;-75
2022/08/08 02:39:03;;;;;;;9.18;6.38;;;;;;;20.18;65.21;94072.44;5124445;28;20165;-75
2022/08/08 02:41:31;;;;;;;10.48;6.97;;;;;;;20.21;65.07;94069.78;5124531;28;20032;-75
2022/08/08 02:44:15;;;;;;;10.20;6.95;;;;;;;20.16;65.31;94070.06;5124362;28;20234;-75
2022/08/08 02:47:27;;;;;;;11.93;6.85;;;;;;;20.17;65.13;94077.06;5124219;28;20191;-74
2022/08/08 02:49:55;;;;;;;9.77;6.72;;;;;;;20.20;65.42;94079.03;5124140;28;20307;-74
2022/08/08 02:52:45;;;;;;;9.07;7.00;;;;;;;20.21;65.23;94080.59;5124162;28;20090;-73
2022/08/08 02:55:45;;;;;;;7.22;5.82;;;;;;;20.22;65.26;94079.44;5124017;28;20141;-73
2022/08/08 02:58:38;;;;;;;11.52;7.30;;;;;;;20.25;65.05;94080.59;5123984;28;20034;-74
2022/08/08 03:01:52;;;;;;;12.48;6.90;;;;;;;20.19;65.02;94076.69;5124011;28;20063;-74
2022/08/08 03:04:43;;;;;;;10.13;6.50;;;;;;;20.09;65.05;94083.53;5124053;28;20250;-74
2022/08/08 03:07:23;;;;;;;9.32;7.07;;;;;;;20.00;65.20;94081.09;5123720;28;20097;-74
2022/08/08 03:10:16;;;;;;;10.88;6.60;;;;;;;19.94;66.14;94081.78;5123854;28;20027;-74
2022/08/08 03:13:16;;;;;;;10.18;7.57;;;;;;;19.82;66.12;94082.78;5123599;28;20318;-73
2022/08/08 03:15:59;;;;;;;12.00;7.18;;;;;;;19.80;66.53;94087.78;5123799;28;20028;-74
2022/08/08 03:18:47;;;;;;;11.38;7.65;;;;;;;19.81;66.58;94095.53;5123545;28;20215;-74
2022/08/08 03:21:13;;;;;;;11.20;7.72;;;;;;;19.79;67.07;94092.41;5122559;28;20031;-74
2022/08/08 03:23:39;;;;;;;10.63;6.78;;;;;;;19.79;67.41;94087.00;5123508;28;20043;-73
2022/08/08 03:26:05;;;;;;;11.02;7.60;;;;;;;19.82;67.40;94090.91;5123569;28;20095;-73
2022/08/08 03:28:46;;;;;;;10.18;7.25;;;;;;;19.85;66.94;94092.88;5123651;28;20028;-73
2022/08/08 03:33:56;;;;;;;10.40;6.55;;;;;;;19.86;66.48;94085.53;5123370;28;20031;-73
2022/08/08 03:36:23;;;;;;;11.00;7.65;;;;;;;19.80;66.93;94093.19;5123361;28;20023;-73
2022/08/08 03:38:51;;;;;;;10.93;6.32;;;;;;;19.83;67.08;94098.66;5123324;28;20022;-73
2022/08/08 03:41:17;;;;;;;11.27;7.22;;;;;;;19.82;67.31;94099.00;5123280;28;20049;-73
2022/08/08 03:43:57;;;;;;;13.40;6.85;;;;;;;19.86;67.56;94104.47;5123006;28;20026;-73
2022/08/08 03:46:23;;;;;;;12.25;7.47;;;;;;;19.87;67.50;94106.06;5123344;28;20016;-74
2022/08/08 03:48:58;;;;;;;14.02;8.55;;;;;;;19.90;67.30;94105.31;5123180;28;20340;-73
2022/08/08 03:51:24;;;;;;;17.38;9.10;;;;;;;19.89;67.56;94111.88;5123168;28;20028;-73
2022/08/08 03:53:53;;;;;;;11.38;9.10;;;;;;;19.89;67.51;94109.16;5122992;28;20348;-73
2022/08/08 03:56:20;;;;;;;17.33;9.27;;;;;;;19.85;68.00;94109.13;5123231;28;20314;-73
2022/08/08 03:58:50;;;;;;;13.35;8.00;;;;;;;19.80;68.39;94115.63;5123279;28;20385;-72
2022/08/08 04:01:16;;;;;;;11.02;8.40;;;;;;;19.86;68.43;94109.88;5122014;28;20047;-73
2022/08/08 04:03:45;;;;;;;11.50;8.10;;;;;;;19.93;67.92;94110.78;5123220;28;20023;-73
2022/08/08 04:06:11;;;;;;;14.32;8.13;;;;;;;19.95;68.13;94118.53;5123089;28;20024;-73
2022/08/08 04:08:37;;;;;;;14.85;8.82;;;;;;;19.97;67.90;94105.41;5123153;28;20092;-73
2022/08/08 04:11:05;;;;;;;14.45;8.65;;;;;;;20.00;67.86;94112.78;5123150;28;20027;-73
2022/08/08 04:13:30;;;;;;;11.25;8.20;;;;;;;19.95;68.18;94124.72;5123134;28;20028;-73
2022/08/08 04:15:56;;;;;;;11.82;8.10;;;;;;;20.00;67.19;94115.50;5122954;28;20034;-73
2022/08/08 04:18:21;;;;;;;12.35;8.80;;;;;;;20.04;67.76;94121.72;5122943;28;20067;-73
2022/08/08 04:20:47;;;;;;;19.77;9.38;;;;;;;20.05;67.65;94117.88;5122921;28;20069;-73
2022/08/08 04:23:12;;;;;;;11.50;8.43;;;;;;;20.07;67.90;94121.00;5122607;28;20209;-74
2022/08/08 04:25:39;;;;;;;11.23;7.95;;;;;;;20.13;67.30;94124.94;5123035;28;20094;-73
2022/08/08 04:28:04;;;;;;;13.60;8.50;;;;;;;20.21;67.37;94118.47;5123007;28;20330;-73
2022/08/08 04:30:30;;;;;;;10.00;7.57;;;;;;;20.30;66.73;94123.59;5122891;28;20027;-73
2022/08/08 04:32:55;;;;;;;14.77;8.88;;;;;;;20.39;66.24;94128.72;5122571;28;20096;-73
2022/08/08 04:35:21;;;;;;;13.52;7.63;;;;;;;20.45;65.88;94129.97;5125284;28;20027;-73
2022/08/08 04:37:46;;;;;;;13.73;8.20;;;;;;;20.57;65.28;94127.00;5126382;28;20229;-73
2022/08/08 04:40:12;;;;;;;14.77;8.13;;;;;;;20.62;65.23;94125.94;5126793;28;20244;-73
2022/08/08 04:42:37;;;;;;;12.40;8.07;;;;;;;20.67;64.41;94131.00;5126646;28;20039;-74
2022/08/08 04:45:06;;;;;;;12.35;8.65;;;;;;;20.67;64.83;94131.00;5126780;28;20035;-73
2022/08/08 04:47:32;;;;;;;11.80;8.90;;;;;;;20.68;65.19;94137.19;5126789;28;20230;-74
2022/08/08 04:49:58;;;;;;;15.68;9.13;;;;;;;20.70;64.96;94141.13;5126477;28;20031;-72
2022/08/08 04:52:23;;;;;;;22.08;10.13;;;;;;;20.62;65.61;94142.19;5126409;28;20031;-73
2022/08/08 04:54:49;;;;;;;14.68;10.10;;;;;;;20.60;66.18;94142.56;5126480;28;20015;-73
2022/08/08 04:57:14;;;;;;;13.02;9.68;;;;;;;20.62;66.14;94140.25;5126446;28;20091;-73
2022/08/08 04:59:40;;;;;;;19.15;10.18;;;;;;;20.65;65.38;94149.56;5126422;28;20035;-74
2022/08/08 05:02:06;;;;;;;17.17;10.23;;;;;;;20.70;65.25;94140.31;5126125;28;20011;-74
2022/08/08 05:04:31;;;;;;;17.02;10.48;;;;;;;20.75;65.44;94140.00;5126428;28;20016;-74
2022/08/08 05:06:57;;;;;;;16.52;10.32;;;;;;;20.80;65.23;94147.78;5126231;28;20086;-73
2022/08/08 05:09:22;;;;;;;15.27;9.93;;;;;;;20.81;64.84;94135.81;5126125;28;20023;-73
2022/08/08 05:11:48;;;;;;;16.77;11.15;;;;;;;20.79;65.22;94148.94;5126084;28;20023;-73
2022/08/08 05:14:14;;;;;;;17.67;10.25;;;;;;;20.79;65.15;94143.53;5126021;28;20035;-73
2022/08/08 05:16:40;;;;;;;17.83;10.25;;;;;;;20.82;65.11;94143.56;5126072;28;20062;-72
2022/08/08 05:19:10;;;;;;;15.02;9.70;;;;;;;20.84;64.98;94152.09;5125968;28;20325;-72
2022/08/08 05:21:39;;;;;;;15.25;9.95;;;;;;;20.97;65.06;94152.63;5125794;28;20019;-73
2022/08/08 05:24:06;;;;;;;15.40;10.85;;;;;;;21.03;64.96;94159.25;5126147;27;20319;-73
2022/08/08 05:26:31;;;;;;;21.60;11.35;;;;;;;21.06;65.25;94156.94;5125929;28;20099;-73
2022/08/08 05:28:56;;;;;;;17.38;10.05;;;;;;;21.11;64.57;94159.34;5125703;28;20023;-75
2022/08/08 05:31:22;;;;;;;19.05;10.93;;;;;;;21.06;64.75;94170.50;5125534;27;20309;-76
2022/08/08 05:33:48;;;;;;;15.45;10.98;;;;;;;21.14;64.63;94164.78;5125486;28;20020;-76
2022/08/08 05:36:15;;;;;;;20.27;9.85;;;;;;;21.21;63.61;94153.25;5125648;28;20026;-76
2022/08/08 05:38:46;;;;;;;18.70;11.02;;;;;;;21.30;63.67;94159.13;5125665;28;20019;-76
2022/08/08 05:41:16;;;;;;;17.50;11.57;;;;;;;21.36;63.67;94171.19;5125341;28;20030;-75
2022/08/08 05:43:46;;;;;;;19.75;10.52;;;;;;;21.41;63.52;94173.56;5125414;28;20023;-75
2022/08/08 05:46:12;;;;;;;18.75;10.98;;;;;;;21.43;63.39;94168.56;5124116;27;20027;-74
2022/08/08 05:48:38;;;;;;;18.98;12.40;;;;;;;21.43;63.53;94165.84;5125249;28;20023;-75
2022/08/08 05:51:04;;;;;;;16.02;10.85;;;;;;;21.56;63.63;94171.00;5125495;28;20054;-72
2022/08/08 05:53:29;;;;;;;15.80;9.55;;;;;;;21.72;63.37;94168.78;5125309;28;20032;-72
2022/08/08 05:56:00;;;;;;;17.75;10.65;;;;;;;21.80;63.15;94162.25;5125361;27;20030;-73
2022/08/08 05:59:09;;;;;;;16.00;10.38;;;;;;;21.88;62.95;94165.81;5124695;28;20023;-75
2022/08/08 06:01:39;;;;;;;20.13;10.02;;;;;;;21.95;62.41;94163.13;5125212;28;20214;-81
2022/08/08 06:04:09;;;;;;;14.35;10.13;;;;;;;22.00;61.53;94170.13;5125198;28;20020;-82
2022/08/08 06:06:40;;;;;;;15.57;9.80;;;;;;;22.06;61.29;94171.31;5125003;28;20310;-81
2022/08/08 06:09:08;;;;;;;22.30;8.90;;;;;;;22.15;61.02;94181.88;5125066;28;20023;-79
2022/08/08 06:11:34;;;;;;;13.85;9.02;;;;;;;22.22;60.67;94173.75;5124986;28;20302;-79
2022/08/08 06:14:04;;;;;;;17.23;9.98;;;;;;;22.23;60.42;94167.97;5124774;28;20020;-80
2022/08/08 06:16:31;;;;;;;16.80;8.32;;;;;;;22.31;60.39;94173.44;5124751;28;20024;-79
2022/08/08 06:18:59;;;;;;;20.55;8.65;;;;;;;22.37;60.33;94186.28;5124757;28;20045;-80
2022/08/08 06:21:25;;;;;;;14.88;8.45;;;;;;;22.49;58.99;94177.03;5124746;28;20340;-81
2022/08/08 06:23:51;;;;;;;11.43;7.13;;;;;;;22.56;58.13;94177.06;5124714;27;20094;-73
2022/08/08 06:26:18;;;;;;;19.00;8.45;;;;;;;22.62;58.85;94180.97;5124706;28;20325;-74
2022/08/08 06:28:52;;;;;;;11.20;7.72;;;;;;;22.57;58.61;94180.53;5124327;28;20023;-76
2022/08/08 06:31:22;;;;;;;13.45;7.65;;;;;;;22.64;57.99;94181.34;5124596;27;20374;-79
2022/08/08 06:34:11;;;;;;;14.05;7.10;;;;;;;22.75;59.09;94188.78;5124348;28;20028;-78
2022/08/08 06:36:38;;;;;;;15.43;7.97;;;;;;;22.79;59.65;94192.28;5124235;28;20125;-76
2022/08/08 06:39:08;;;;;;;21.75;8.48;;;;;;;22.82;59.80;94191.53;5125070;28;20035;-75
2022/08/08 06:41:40;;;;;;;14.95;7.95;;;;;;;22.86;59.53;94192.31;5124723;28;20023;-76
2022/08/08 06:44:10;;;;;;;16.13;7.68;;;;;;;22.87;58.75;94193.09;5124820;28;20209;-76
2022/08/08 06:46:37;;;;;;;17.13;8.45;;;;;;;22.86;59.38;94186.88;5124688;28;20061;-75
2022/08/08 06:49:03;;;;;;;16.02;7.95;;;;;;;22.86;59.30;94195.03;5124639;28;20047;-76
2022/08/08 06:51:29;;;;;;;12.43;8.10;;;;;;;22.88;59.53;94189.19;5124510;28;20031;-76
2022/08/08 06:53:55;;;;;;;13.18;8.00;;;;;;;22.91;59.09;94193.88;5124586;28;20023;-77
2022/08/08 06:56:22;;;;;;;15.52;8.82;;;;;;;22.95;59.35;94194.66;5124982;28;20031;-86
2022/08/08 06:58:48;;;;;;;16.58;7.20;;;;;;;22.98;59.00;94185.75;5124508;28;20069;-85
2022/08/08 07:01:16;;;;;;;14.25;7.75;;;;;;;22.99;58.07;94193.50;5124875;28;20090;-79
2022/08/08 07:04:01;;;;;;;15.18;7.32;;;;;;;23.08;57.79;94200.56;5124510;28;20019;-79
2022/08/08 07:06:32;;;;;;;10.85;7.68;;;;;;;23.12;57.02;94191.25;5124788;28;20019;-78
2022/08/08 07:09:05;;;;;;;14.98;7.43;;;;;;;23.13;56.46;94194.75;5124000;28;20024;-76
2022/08/08 07:11:34;;;;;;;9.10;7.30;;;;;;;23.16;55.71;94202.91;5124010;28;20098;-77
2022/08/08 07:14:03;;;;;;;12.43;6.68;;;;;;;23.12;55.62;94193.19;5123606;28;20050;-77
2022/08/08 07:16:47;;;;;;;11.43;6.63;;;;;;;23.09;55.82;94191.25;5123674;28;20050;-77
2022/08/08 07:19:36;;;;;;;18.63;6.25;;;;;;;23.13;56.29;94194.75;5123813;28;20380;-77
2022/08/08 07:22:07;;;;;;;13.25;7.63;;;;;;;23.17;56.34;94190.09;5122735;28;20047;-78
2022/08/08 07:24:42;;;;;;;10.50;6.25;;;;;;;23.25;54.28;94191.66;5123809;28;20215;-78
2022/08/08 07:27:11;;;;;;;12.43;5.25;;;;;;;23.32;53.38;94188.16;5123712;28;20326;-77
2022/08/08 07:29:38;;;;;;;11.05;5.95;;;;;;;23.39;52.75;94190.91;5123936;28;20019;-78
2022/08/08 07:32:06;;;;;;;10.35;5.40;;;;;;;23.49;53.07;94192.06;5123939;28;20023;-78
2022/08/08 07:34:34;;;;;;;9.38;5.70;;;;;;;23.59;52.20;94199.47;5123917;28;20027;-77
2022/08/08 07:37:02;;;;;;;9.48;5.25;;;;;;;23.69;53.42;94193.28;5123764;28;20445;-76
2022/08/08 07:39:30;;;;;;;15.80;6.20;;;;;;;23.77;53.71;94192.13;5123667;28;20217;-76
2022/08/08 07:41:59;;;;;;;13.00;6.00;;;;;;;23.88;50.83;94196.78;5123306;28;20049;-76
2022/08/08 07:44:25;;;;;;;10.05;5.60;;;;;;;23.94;51.01;94192.50;5123876;28;20628;-77
2022/08/08 07:46:51;;;;;;;13.98;6.00;;;;;;;24.05;49.21;94184.31;5123513;28;20019;-78
2022/08/08 07:49:17;;;;;;;13.32;5.30;;;;;;;24.08;51.06;94191.69;5123675;28;20090;-78
2022/08/08 07:51:43;;;;;;;12.70;5.20;;;;;;;24.13;50.95;94194.81;5123606;28;20035;-79
2022/08/08 07:54:43;;;;;;;9.50;5.50;;;;;;;24.22;49.69;94187.03;5123314;28;20024;-79
2022/08/08 07:57:39;;;;;;;12.02;5.78;;;;;;;24.29;48.79;94183.50;5120210;28;20058;-78
2022/08/08 08:00:12;;;;;;;9.23;4.22;;;;;;;24.39;48.12;94184.66;5123834;28;20038;-78
2022/08/08 08:02:49;;;;;;;12.38;3.60;;;;;;;24.49;45.88;94183.84;5123454;28;20011;-76
2022/08/08 08:05:19;;;;;;;6.63;3.50;;;;;;;24.59;45.26;94174.88;5123480;28;20352;-78
2022/08/08 08:07:48;;;;;;;9.50;3.80;;;;;;;24.67;45.68;94174.84;5123417;28;20030;-77
2022/08/08 08:10:18;;;;;;;12.10;5.00;;;;;;;24.78;45.37;94173.63;5125754;28;20081;-78
2022/08/08 08:12:52;;;;;;;9.65;4.07;;;;;;;24.94;44.95;94173.16;5127445;28;20077;-78
2022/08/08 08:15:23;;;;;;;9.77;4.38;;;;;;;25.03;45.94;94175.47;5127556;28;20310;-77
2022/08/08 08:17:49;;;;;;;15.50;4.53;;;;;;;25.17;44.51;94177.34;5127326;28;20050;-76
2022/08/08 08:20:18;;;;;;;6.57;3.17;;;;;;;25.29;42.59;94174.16;5127359;28;20256;-81
2022/08/08 08:22:43;;;;;;;14.10;3.83;;;;;;;25.39;42.26;94169.81;5127084;28;20187;-78
2022/08/08 08:25:08;;;;;;;9.77;4.40;;;;;;;25.54;42.42;94173.22;5127163;28;20031;-79
2022/08/08 08:27:34;;;;;;;8.38;4.00;;;;;;;25.62;41.21;94169.25;5127580;28;20022;-81
2022/08/08 08:30:00;;;;;;;8.15;3.42;;;;;;;25.72;41.12;94170.34;5127015;28;20054;-80
2022/08/08 08:32:26;;;;;;;14.23;3.97;;;;;;;25.85;41.10;94162.44;5127182;28;20261;-81
2022/08/08 08:34:51;;;;;;;7.78;4.57;;;;;;;25.92;41.56;94170.59;5127033;28;20018;-80
2022/08/08 08:37:17;;;;;;;8.98;4.50;;;;;;;26.01;41.07;94171.69;5126922;28;20016;-81
2022/08/08 08:39:42;;;;;;;14.13;4.07;;;;;;;26.11;39.86;94172.75;5126863;28;20023;-82
2022/08/08 08:42:09;;;;;;;11.35;3.88;;;;;;;26.19;40.44;94168.78;5126880;28;20015;-81
2022/08/08 08:44:34;;;;;;;16.88;4.20;;;;;;;26.30;39.72;94159.72;5126960;28;20194;-79
2022/08/08 08:47:04;;;;;;;7.30;4.05;;;;;;;26.39;39.44;94170.94;5127048;28;20022;-80
2022/08/08 08:49:30;;;;;;;8.05;3.38;;;;;;;26.46;38.88;94165.41;5126847;28;20038;-80
2022/08/08 08:52:00;;;;;;;10.93;3.83;;;;;;;26.59;38.88;94169.16;5126871;28;20217;-79
2022/08/08 08:54:28;;;;;;;7.60;3.78;;;;;;;26.66;37.94;94159.31;5126728;28;20256;-79
2022/08/08 08:56:55;;;;;;;5.00;3.00;;;;;;;26.76;37.18;94163.88;5126532;28;20340;-79
2022/08/08 08:59:22;;;;;;;9.45;3.65;;;;;;;26.81;37.54;94147.81;5126782;28;20031;-79
2022/08/08 09:01:50;;;;;;;7.28;3.05;;;;;;;26.88;37.32;94152.41;5126774;27;20094;-79
2022/08/08 09:04:24;;;;;;;6.32;3.17;;;;;;;26.95;37.26;94152.31;5126468;28;20035;-78
2022/08/08 09:06:52;;;;;;;5.90;3.13;;;;;;;27.02;37.22;94154.94;5126438;27;20352;-80
2022/08/08 09:09:24;;;;;;;7.20;3.50;;;;;;;27.12;36.63;94149.75;5125151;28;20021;-78
2022/08/08 09:11:50;;;;;;;;;;;;;;;27.08;35.56;94149.81;5126917;28;20024;-78
2022/08/08 09:14:23;;;;;;;8.05;2.70;;;;;;;27.12;35.74;94152.50;5126003;28;19978;-81
2022/08/08 09:16:53;;;;;;;7.78;3.45;;;;;;;27.17;35.50;94147.34;5126031;28;20035;-80
2022/08/08 09:19:19;;;;;;;9.18;3.85;;;;;;;27.22;35.05;94154.31;5126586;28;20023;-80
2022/08/08 09:21:46;;;;;;;7.82;3.83;;;;;;;27.27;36.22;94153.09;5125543;28;20026;-81
2022/08/08 09:24:13;;;;;;;11.80;3.75;;;;;;;27.32;35.93;94141.69;5126000;28;20295;-81
2022/08/08 09:26:48;;;;;;;10.20;3.30;;;;;;;27.38;35.92;94145.50;5125944;28;20096;-81
2022/08/08 09:29:23;;;;;;;6.63;3.20;;;;;;;27.41;34.65;94129.00;5125927;28;20055;-81
2022/08/08 09:32:02;;;;;;;8.30;3.58;;;;;;;27.44;35.74;94132.09;5125860;28;20343;-82
2022/08/08 09:34:31;;;;;;;13.60;3.70;;;;;;;27.54;35.29;94125.69;5125532;28;20215;-81
2022/08/08 09:37:07;;;;;;;11.00;4.32;;;;;;;27.63;35.50;94112.25;5125647;28;20357;-81
2022/08/08 09:39:57;;;;;;;11.68;3.38;;;;;;;27.75;36.22;94117.13;5125779;28;20019;-81
2022/08/08 09:42:31;;;;;;;7.47;3.10;;;;;;;27.86;34.99;94116.19;5125438;28;20031;-81
2022/08/08 09:45:09;;;;;;;11.13;3.50;;;;;;;27.91;35.36;94111.03;5125577;28;20019;-81
2022/08/08 09:47:37;;;;;;;11.70;3.15;;;;;;;28.02;34.48;94121.78;5125446;28;20028;-77
2022/08/08 09:50:09;;;;;;;14.52;3.63;;;;;;;28.03;35.58;94106.91;5124737;28;20024;-78
2022/08/08 09:52:35;;;;;;;7.47;3.35;;;;;;;28.06;35.66;94099.81;5125232;28;20340;-73
2022/08/08 09:55:02;;;;;;;11.80;4.07;;;;;;;28.20;36.18;94100.31;5124144;28;20024;-75
2022/08/08 09:57:39;;;;;;;13.98;6.43;;;;;;;28.28;38.34;94100.19;5125034;28;20351;-78
2022/08/08 10:00:09;;;;;;;7.18;3.92;;;;;;;28.35;36.02;94089.06;5125173;28;20027;-74
2022/08/08 10:02:40;;;;;;;11.27;6.88;;;;;;;28.44;35.89;94100.25;5124358;28;20031;-74
2022/08/08 10:05:16;;;;;;;8.82;3.08;;;;;;;28.35;32.10;94095.34;5125476;27;20047;-73
2022/08/08 10:07:53;;;;;;;12.18;6.93;;;;;;;28.43;34.50;94090.47;5124590;28;20054;-79
2022/08/08 10:10:36;;;;;;;4.75;3.35;;;;;;;28.45;33.22;94082.59;5123326;28;20336;-77
2022/08/08 10:13:21;;;;;;;11.05;4.70;;;;;;;28.54;34.82;94082.84;5124797;28;20033;-77
2022/08/08 10:15:52;;;;;;;13.95;6.57;;;;;;;28.64;35.81;94074.81;5123942;28;20023;-77
2022/08/08 10:18:25;;;;;;;12.25;3.63;;;;;;;28.75;33.62;94067.91;5123883;27;20050;-78
2022/08/08 10:20:53;;;;;;;8.70;4.75;;;;;;;28.65;32.66;94062.66;5124680;28;20340;-77
2022/08/08 10:23:38;;;;;;;7.85;3.22;;;;;;;28.47;32.68;94074.72;5123447;28;20012;-76
2022/08/08 10:26:04;;;;;;;9.02;4.40;;;;;;;28.49;32.81;94072.34;5124304;28;20027;-78
2022/08/08 10:28:31;;;;;;;10.65;3.55;;;;;;;28.55;31.97;94064.41;5123722;28;20019;-78
2022/08/08 10:30:58;;;;;;;10.23;5.07;;;;;;;28.68;34.34;94059.03;5124256;28;20031;-78
2022/08/08 10:33:31;;;;;;;12.18;3.17;;;;;;;28.74;32.46;94049.13;5123192;28;20258;-77
2022/08/08 10:36:03;;;;;;;11.60;2.40;;;;;;;28.80;30.68;94056.44;5123895;28;20038;-78
2022/08/08 10:38:31;;;;;;;7.75;2.95;;;;;;;28.82;30.27;94056.00;5122664;28;20024;-78
2022/08/08 10:41:02;;;;;;;7.93;3.75;;;;;;;28.97;32.22;94059.22;5122493;28;20054;-78
2022/08/08 10:43:38;;;;;;;13.35;2.97;;;;;;;29.12;31.30;94054.94;5122407;27;20028;-77
2022/08/08 10:46:03;;;;;;;9.80;2.78;;;;;;;29.22;30.69;94050.41;5122548;28;20067;-76
2022/08/08 10:48:36;;;;;;;9.55;3.45;;;;;;;29.36;31.10;94041.84;5122353;28;20028;-79
2022/08/08 10:51:13;;;;;;;6.82;2.92;;;;;;;29.50;29.28;94034.47;5122189;28;20037;-79
2022/08/08 10:53:40;;;;;;;8.00;3.35;;;;;;;29.55;30.29;94044.91;5122093;28;20047;-80
2022/08/08 10:56:09;;;;;;;7.72;4.43;;;;;;;29.68;30.84;94042.25;5124127;28;20034;-80
2022/08/08 10:58:34;;;;;;;8.18;2.92;;;;;;;29.76;29.38;94040.91;5123808;27;20019;-77
2022/08/08 11:01:08;;;;;;;9.38;3.75;;;;;;;29.86;30.92;94050.03;5123716;28;20042;-77
2022/08/08 11:03:44;;;;;;;16.35;3.25;;;;;;;29.90;28.98;94036.97;5122924;28;20332;-77
2022/08/08 11:06:11;;;;;;;6.95;2.92;;;;;;;29.88;29.29;94040.19;5123935;28;20027;-77
2022/08/08 11:08:37;;;;;;;5.32;2.47;;;;;;;29.95;28.93;94050.97;5123804;28;20019;-77
2022/08/08 11:11:03;;;;;;;7.47;3.05;;;;;;;30.04;29.27;94049.56;5123843;28;20094;-78
2022/08/08 11:13:37;;;;;;;5.32;3.28;;;;;;;30.11;29.93;94041.91;5123719;28;20060;-77
2022/08/08 11:16:02;;;;;;;8.27;2.38;;;;;;;30.19;29.85;94037.75;5123702;27;20023;-78
2022/08/08 11:18:29;;;;;;;5.43;2.70;;;;;;;30.22;29.19;94029.84;5123186;28;20421;-75
2022/08/08 11:20:55;;;;;;;8.18;3.65;;;;;;;30.30;30.25;94037.47;5123407;28;20027;-74
2022/08/08 11:23:23;;;;;;;4.97;2.30;;;;;;;30.37;27.20;94025.53;5123708;28;20015;-77
2022/08/08 11:25:51;;;;;;;6.28;2.63;;;;;;;30.47;27.03;94010.69;5123606;28;20084;-79
2022/08/08 11:28:22;;;;;;;7.57;3.67;;;;;;;30.56;29.35;94016.28;5123517;28;20086;-80
2022/08/08 11:30:48;;;;;;;8.07;3.10;;;;;;;30.62;28.38;94024.00;5123649;28;20023;-79
2022/08/08 11:33:14;;;;;;;5.25;3.20;;;;;;;30.68;29.00;94028.53;5123868;28;20102;-80
2022/08/08 11:35:42;;;;;;;15.77;2.80;;;;;;;30.65;26.85;94026.63;5124250;28;20030;-81
2022/08/08 11:38:08;;;;;;;6.80;3.05;;;;;;;30.68;28.28;94027.75;5124323;28;20023;-80
2022/08/08 11:40:34;;;;;;;5.72;2.55;;;;;;;30.69;27.22;94018.28;5124354;28;20016;-79
2022/08/08 11:43:00;;;;;;;5.85;2.13;;;;;;;30.63;26.54;94031.81;5122595;28;20051;-79
2022/08/08 11:45:25;;;;;;;8.57;2.92;;;;;;;30.47;26.88;94029.16;5123266;28;20023;-79
2022/08/08 11:47:51;;;;;;;6.30;2.65;;;;;;;30.44;27.77;94022.53;5123664;28;20090;-84
2022/08/08 11:50:18;;;;;;;11.40;3.08;;;;;;;30.46;28.27;94022.88;5123732;28;20075;-84
2022/08/08 11:52:45;;;;;;;7.45;2.78;;;;;;;30.28;26.96;94015.13;5123320;28;20027;-83
2022/08/08 11:55:26;;;;;;;6.88;2.70;;;;;;;30.38;27.52;94022.31;5123222;28;20049;-83
2022/08/08 11:58:08;;;;;;;11.55;2.53;;;;;;;30.42;27.90;94024.97;5123048;28;20039;-83
2022/08/08 12:00:44;;;;;;;7.60;2.92;;;;;;;30.42;29.04;94011.22;5122482;28;20065;-84